KECG/ECG METAR and TAF weather

Enter ICAO airport designator
Station Type Date Time Source
KECG METAR 2022/08/12 13:54 UTC NOAA

KECG 121354Z 25005KT 10SM CLR 24/22 A3000 RMK AO2 SLP159 T02440217


Station Type Date Time Source
KECG Decoded METAR 2022/08/12 13:54 UTC NOAA

ELIZABETH CITY C/G REGN AIRPORT , NC, United States (KECG) 36-15N 076-10W 11M
Aug 12, 2022 - 09:54 AM EDT / 2022.08.12 1354 UTC
Wind: from the WSW (250 degrees) at 6 MPH (5 KT):0
Visibility: 10 mile(s):0
Sky conditions: clear
Temperature: 75.9 F (24.4 C)
Dew Point: 71.1 F (21.7 C)
Relative Humidity: 84%
Pressure (altimeter): 30 in. Hg (1015 hPa)
ob: KECG 121354Z 25005KT 10SM CLR 24/22 A3000 RMK AO2 SLP159 T02440217
cycle: 14

Station Type Date Time Source
KECG TAF 2022/08/12 13:24 UTC NOAA

TAF KECG 121316Z 1213/1312 33006KT P6SM BKN010
FM121500 29006KT P6SM BKN040
FM121800 36008KT P6SM VCSH BKN050
FM130000 06005KT P6SM BKN100

Example: see airport list